sensor_id;sensor_type;location;lat;lon;timestamp;temperature;humidity
64034;SHT31;50280;49.864;8.638;2022-11-15T00:02:29;13.31;67.82
64034;SHT31;50280;49.864;8.638;2022-11-15T00:05:03;13.28;67.83
64034;SHT31;50280;49.864;8.638;2022-11-15T00:07:36;13.31;67.85
64034;SHT31;50280;49.864;8.638;2022-11-15T00:10:09;13.27;67.94
64034;SHT31;50280;49.864;8.638;2022-11-15T00:12:41;13.27;68.06
64034;SHT31;50280;49.864;8.638;2022-11-15T00:15:13;13.24;68.19
64034;SHT31;50280;49.864;8.638;2022-11-15T00:17:48;13.23;68.22
64034;SHT31;50280;49.864;8.638;2022-11-15T00:20:22;13.24;68.57
64034;SHT31;50280;49.864;8.638;2022-11-15T00:22:55;13.26;68.51
64034;SHT31;50280;49.864;8.638;2022-11-15T00:25:27;13.28;68.31
64034;SHT31;50280;49.864;8.638;2022-11-15T00:28:01;13.28;68.24
64034;SHT31;50280;49.864;8.638;2022-11-15T00:30:34;13.31;68.02
64034;SHT31;50280;49.864;8.638;2022-11-15T00:33:06;13.31;68.04
64034;SHT31;50280;49.864;8.638;2022-11-15T00:35:42;13.30;67.93
64034;SHT31;50280;49.864;8.638;2022-11-15T00:38:15;13.33;68.06
64034;SHT31;50280;49.864;8.638;2022-11-15T00:40:47;13.34;68.26
64034;SHT31;50280;49.864;8.638;2022-11-15T00:43:19;13.33;68.31
64034;SHT31;50280;49.864;8.638;2022-11-15T00:45:52;13.33;68.33
64034;SHT31;50280;49.864;8.638;2022-11-15T00:48:24;13.37;68.36
64034;SHT31;50280;49.864;8.638;2022-11-15T00:50:58;13.37;68.34
64034;SHT31;50280;49.864;8.638;2022-11-15T00:53:30;13.36;68.33
64034;SHT31;50280;49.864;8.638;2022-11-15T00:56:03;13.34;68.37
64034;SHT31;50280;49.864;8.638;2022-11-15T00:58:36;13.33;68.59
64034;SHT31;50280;49.864;8.638;2022-11-15T01:01:09;13.27;68.64
64034;SHT31;50280;49.864;8.638;2022-11-15T01:03:44;13.26;68.66
64034;SHT31;50280;49.864;8.638;2022-11-15T01:06:18;13.24;68.76
64034;SHT31;50280;49.864;8.638;2022-11-15T01:08:50;13.23;68.76
64034;SHT31;50280;49.864;8.638;2022-11-15T01:11:23;13.20;68.72
64034;SHT31;50280;49.864;8.638;2022-11-15T01:13:55;13.20;68.90
64034;SHT31;50280;49.864;8.638;2022-11-15T01:16:27;13.20;68.77
64034;SHT31;50280;49.864;8.638;2022-11-15T01:19:00;13.20;68.96
64034;SHT31;50280;49.864;8.638;2022-11-15T01:21:34;13.16;69.11
64034;SHT31;50280;49.864;8.638;2022-11-15T01:24:07;13.13;69.29
64034;SHT31;50280;49.864;8.638;2022-11-15T01:26:44;13.09;69.55
64034;SHT31;50280;49.864;8.638;2022-11-15T01:29:16;13.04;69.74
64034;SHT31;50280;49.864;8.638;2022-11-15T01:31:49;13.02;70.01
64034;SHT31;50280;49.864;8.638;2022-11-15T01:34:21;12.99;70.14
64034;SHT31;50280;49.864;8.638;2022-11-15T01:36:55;12.96;70.33
64034;SHT31;50280;49.864;8.638;2022-11-15T01:39:27;12.92;70.58
64034;SHT31;50280;49.864;8.638;2022-11-15T01:42:00;12.90;70.80
64034;SHT31;50280;49.864;8.638;2022-11-15T01:44:41;12.85;71.17
64034;SHT31;50280;49.864;8.638;2022-11-15T01:47:20;12.86;71.52
64034;SHT31;50280;49.864;8.638;2022-11-15T01:50:00;12.83;71.71
64034;SHT31;50280;49.864;8.638;2022-11-15T01:52:37;12.83;71.96
64034;SHT31;50280;49.864;8.638;2022-11-15T01:55:16;12.85;72.10
64034;SHT31;50280;49.864;8.638;2022-11-15T01:57:56;12.85;72.41
64034;SHT31;50280;49.864;8.638;2022-11-15T02:00:33;12.85;72.57
64034;SHT31;50280;49.864;8.638;2022-11-15T02:03:07;12.86;72.75
64034;SHT31;50280;49.864;8.638;2022-11-15T02:05:39;12.89;72.83
64034;SHT31;50280;49.864;8.638;2022-11-15T02:08:15;12.90;73.04
64034;SHT31;50280;49.864;8.638;2022-11-15T02:10:47;12.90;73.15
64034;SHT31;50280;49.864;8.638;2022-11-15T02:13:20;12.93;73.24
64034;SHT31;50280;49.864;8.638;2022-11-15T02:15:59;12.97;73.24
64034;SHT31;50280;49.864;8.638;2022-11-15T02:18:52;13.06;73.25
64034;SHT31;50280;49.864;8.638;2022-11-15T02:21:35;13.10;73.19
64034;SHT31;50280;49.864;8.638;2022-11-15T02:24:43;13.10;73.16
64034;SHT31;50280;49.864;8.638;2022-11-15T02:27:59;13.11;73.10
64034;SHT31;50280;49.864;8.638;2022-11-15T02:31:03;13.09;73.13
64034;SHT31;50280;49.864;8.638;2022-11-15T02:33:53;13.10;72.85
64034;SHT31;50280;49.864;8.638;2022-11-15T02:36:43;13.07;72.96
64034;SHT31;50280;49.864;8.638;2022-11-15T02:39:38;13.06;72.63
64034;SHT31;50280;49.864;8.638;2022-11-15T02:42:24;13.02;72.50
64034;SHT31;50280;49.864;8.638;2022-11-15T02:45:04;13.03;72.48
64034;SHT31;50280;49.864;8.638;2022-11-15T02:47:46;13.00;72.70
64034;SHT31;50280;49.864;8.638;2022-11-15T02:50:25;12.95;73.11
64034;SHT31;50280;49.864;8.638;2022-11-15T02:53:01;12.85;72.49
64034;SHT31;50280;49.864;8.638;2022-11-15T02:55:36;12.72;72.89
64034;SHT31;50280;49.864;8.638;2022-11-15T02:58:25;12.55;73.31
64034;SHT31;50280;49.864;8.638;2022-11-15T03:01:34;12.38;73.73
64034;SHT31;50280;49.864;8.638;2022-11-15T03:04:30;12.24;74.25
64034;SHT31;50280;49.864;8.638;2022-11-15T03:07:18;12.09;74.76
64034;SHT31;50280;49.864;8.638;2022-11-15T03:10:05;11.99;75.03
64034;SHT31;50280;49.864;8.638;2022-11-15T03:12:50;11.90;75.23
64034;SHT31;50280;49.864;8.638;2022-11-15T03:15:32;11.85;75.17
64034;SHT31;50280;49.864;8.638;2022-11-15T03:18:16;11.81;74.85
64034;SHT31;50280;49.864;8.638;2022-11-15T03:21:01;11.76;74.70
64034;SHT31;50280;49.864;8.638;2022-11-15T03:23:40;11.76;74.84
64034;SHT31;50280;49.864;8.638;2022-11-15T03:26:16;11.78;74.59
64034;SHT31;50280;49.864;8.638;2022-11-15T03:28:57;11.78;74.46
64034;SHT31;50280;49.864;8.638;2022-11-15T03:31:38;11.79;74.45
64034;SHT31;50280;49.864;8.638;2022-11-15T03:34:22;11.76;74.71
64034;SHT31;50280;49.864;8.638;2022-11-15T03:37:05;11.76;75.01
64034;SHT31;50280;49.864;8.638;2022-11-15T03:39:40;11.75;75.21
64034;SHT31;50280;49.864;8.638;2022-11-15T03:42:21;11.74;75.52
64034;SHT31;50280;49.864;8.638;2022-11-15T03:45:08;11.68;75.86
64034;SHT31;50280;49.864;8.638;2022-11-15T03:47:52;11.62;76.08
64034;SHT31;50280;49.864;8.638;2022-11-15T03:50:31;11.55;76.33
64034;SHT31;50280;49.864;8.638;2022-11-15T03:53:06;11.51;76.38
64034;SHT31;50280;49.864;8.638;2022-11-15T03:55:40;11.44;76.62
64034;SHT31;50280;49.864;8.638;2022-11-15T03:58:12;11.41;76.78
64034;SHT31;50280;49.864;8.638;2022-11-15T04:00:44;11.38;76.99
64034;SHT31;50280;49.864;8.638;2022-11-15T04:03:17;11.31;77.20
64034;SHT31;50280;49.864;8.638;2022-11-15T04:05:49;11.27;77.53
64034;SHT31;50280;49.864;8.638;2022-11-15T04:08:23;11.21;77.79
64034;SHT31;50280;49.864;8.638;2022-11-15T04:10:55;11.21;77.98
64034;SHT31;50280;49.864;8.638;2022-11-15T04:13:28;11.20;78.09
64034;SHT31;50280;49.864;8.638;2022-11-15T04:16:00;11.20;78.23
64034;SHT31;50280;49.864;8.638;2022-11-15T04:18:32;11.16;78.34
64034;SHT31;50280;49.864;8.638;2022-11-15T04:21:05;11.14;78.42
64034;SHT31;50280;49.864;8.638;2022-11-15T04:23:40;11.12;78.73
64034;SHT31;50280;49.864;8.638;2022-11-15T04:26:15;11.12;78.87
64034;SHT31;50280;49.864;8.638;2022-11-15T04:28:51;11.09;78.88
64034;SHT31;50280;49.864;8.638;2022-11-15T04:31:23;11.07;78.84
64034;SHT31;50280;49.864;8.638;2022-11-15T04:33:56;11.06;78.77
64034;SHT31;50280;49.864;8.638;2022-11-15T04:36:28;11.04;78.84
64034;SHT31;50280;49.864;8.638;2022-11-15T04:39:02;11.06;79.06
64034;SHT31;50280;49.864;8.638;2022-11-15T04:41:35;11.06;79.16
64034;SHT31;50280;49.864;8.638;2022-11-15T04:44:07;11.06;79.39
64034;SHT31;50280;49.864;8.638;2022-11-15T04:46:40;11.07;79.12
64034;SHT31;50280;49.864;8.638;2022-11-15T04:49:12;11.02;78.96
64034;SHT31;50280;49.864;8.638;2022-11-15T04:51:44;11.02;78.68
64034;SHT31;50280;49.864;8.638;2022-11-15T04:54:18;11.00;79.29
64034;SHT31;50280;49.864;8.638;2022-11-15T04:56:51;10.97;80.36
64034;SHT31;50280;49.864;8.638;2022-11-15T04:59:23;11.00;80.89
64034;SHT31;50280;49.864;8.638;2022-11-15T05:01:56;10.97;80.77
64034;SHT31;50280;49.864;8.638;2022-11-15T05:04:28;10.95;80.79
64034;SHT31;50280;49.864;8.638;2022-11-15T05:07:00;10.93;80.63
64034;SHT31;50280;49.864;8.638;2022-11-15T05:09:34;10.92;80.78
64034;SHT31;50280;49.864;8.638;2022-11-15T05:12:06;10.88;80.54
64034;SHT31;50280;49.864;8.638;2022-11-15T05:14:39;10.86;81.10
64034;SHT31;50280;49.864;8.638;2022-11-15T05:17:11;10.88;81.58
64034;SHT31;50280;49.864;8.638;2022-11-15T05:19:43;10.85;81.63
64034;SHT31;50280;49.864;8.638;2022-11-15T05:22:16;10.86;81.21
64034;SHT31;50280;49.864;8.638;2022-11-15T05:24:50;10.85;81.50
64034;SHT31;50280;49.864;8.638;2022-11-15T05:27:22;10.82;81.42
64034;SHT31;50280;49.864;8.638;2022-11-15T05:29:54;10.80;81.33
64034;SHT31;50280;49.864;8.638;2022-11-15T05:32:27;10.79;81.47
64034;SHT31;50280;49.864;8.638;2022-11-15T05:35:00;10.78;81.83
64034;SHT31;50280;49.864;8.638;2022-11-15T05:37:33;10.75;82.00
64034;SHT31;50280;49.864;8.638;2022-11-15T05:40:08;10.76;82.23
64034;SHT31;50280;49.864;8.638;2022-11-15T05:42:41;10.75;82.53
64034;SHT31;50280;49.864;8.638;2022-11-15T05:45:13;10.78;82.68
64034;SHT31;50280;49.864;8.638;2022-11-15T05:47:47;10.78;83.03
64034;SHT31;50280;49.864;8.638;2022-11-15T05:50:22;10.78;83.02
64034;SHT31;50280;49.864;8.638;2022-11-15T05:52:55;10.80;83.02
64034;SHT31;50280;49.864;8.638;2022-11-15T05:55:30;10.80;83.34
64034;SHT31;50280;49.864;8.638;2022-11-15T05:58:03;10.80;83.42
64034;SHT31;50280;49.864;8.638;2022-11-15T06:00:35;10.82;83.65
64034;SHT31;50280;49.864;8.638;2022-11-15T06:03:08;10.82;83.74
64034;SHT31;50280;49.864;8.638;2022-11-15T06:05:41;10.82;83.75
64034;SHT31;50280;49.864;8.638;2022-11-15T06:08:13;10.82;83.78
64034;SHT31;50280;49.864;8.638;2022-11-15T06:10:47;10.83;83.97
64034;SHT31;50280;49.864;8.638;2022-11-15T06:13:19;10.83;83.80
64034;SHT31;50280;49.864;8.638;2022-11-15T06:15:55;10.83;83.70
64034;SHT31;50280;49.864;8.638;2022-11-15T06:18:27;10.85;83.68
64034;SHT31;50280;49.864;8.638;2022-11-15T06:21:03;10.88;83.76
64034;SHT31;50280;49.864;8.638;2022-11-15T06:23:36;10.86;83.79
64034;SHT31;50280;49.864;8.638;2022-11-15T06:26:10;10.88;83.69
64034;SHT31;50280;49.864;8.638;2022-11-15T06:28:42;10.89;83.72
64034;SHT31;50280;49.864;8.638;2022-11-15T06:31:15;10.92;83.85
64034;SHT31;50280;49.864;8.638;2022-11-15T06:33:47;10.93;84.15
64034;SHT31;50280;49.864;8.638;2022-11-15T06:36:20;10.95;84.30
64034;SHT31;50280;49.864;8.638;2022-11-15T06:38:52;10.92;84.40
64034;SHT31;50280;49.864;8.638;2022-11-15T06:41:26;10.93;84.52
64034;SHT31;50280;49.864;8.638;2022-11-15T06:43:58;10.93;84.41
64034;SHT31;50280;49.864;8.638;2022-11-15T06:46:31;10.93;84.03
64034;SHT31;50280;49.864;8.638;2022-11-15T06:49:03;10.99;83.35
64034;SHT31;50280;49.864;8.638;2022-11-15T06:51:35;11.02;82.89
64034;SHT31;50280;49.864;8.638;2022-11-15T06:54:08;11.06;81.79
64034;SHT31;50280;49.864;8.638;2022-11-15T06:56:41;11.09;81.71
64034;SHT31;50280;49.864;8.638;2022-11-15T06:59:14;11.17;81.53
64034;SHT31;50280;49.864;8.638;2022-11-15T07:01:46;11.21;81.49
64034;SHT31;50280;49.864;8.638;2022-11-15T07:04:19;11.21;81.09
64034;SHT31;50280;49.864;8.638;2022-11-15T07:06:51;11.26;80.86
64034;SHT31;50280;49.864;8.638;2022-11-15T07:09:24;11.26;80.99
64034;SHT31;50280;49.864;8.638;2022-11-15T07:11:57;11.28;80.70
64034;SHT31;50280;49.864;8.638;2022-11-15T07:14:30;11.32;80.20
64034;SHT31;50280;49.864;8.638;2022-11-15T07:17:03;11.35;80.22
64034;SHT31;50280;49.864;8.638;2022-11-15T07:19:36;11.38;79.87
64034;SHT31;50280;49.864;8.638;2022-11-15T07:22:08;11.41;79.83
64034;SHT31;50280;49.864;8.638;2022-11-15T07:24:40;11.42;79.51
64034;SHT31;50280;49.864;8.638;2022-11-15T07:27:14;11.48;79.36
64034;SHT31;50280;49.864;8.638;2022-11-15T07:29:46;11.54;79.35
64034;SHT31;50280;49.864;8.638;2022-11-15T07:32:19;11.54;79.84
64034;SHT31;50280;49.864;8.638;2022-11-15T07:34:51;11.59;79.82
64034;SHT31;50280;49.864;8.638;2022-11-15T07:37:24;11.62;79.08
64034;SHT31;50280;49.864;8.638;2022-11-15T07:39:56;11.69;79.06
64034;SHT31;50280;49.864;8.638;2022-11-15T07:42:32;11.69;78.82
64034;SHT31;50280;49.864;8.638;2022-11-15T07:45:05;11.71;78.51
64034;SHT31;50280;49.864;8.638;2022-11-15T07:47:38;11.71;78.56
64034;SHT31;50280;49.864;8.638;2022-11-15T07:50:10;11.72;78.77
64034;SHT31;50280;49.864;8.638;2022-11-15T07:52:43;11.74;78.46
64034;SHT31;50280;49.864;8.638;2022-11-15T07:55:17;11.76;78.39
64034;SHT31;50280;49.864;8.638;2022-11-15T07:57:51;11.81;78.34
64034;SHT31;50280;49.864;8.638;2022-11-15T08:00:23;11.85;78.34
64034;SHT31;50280;49.864;8.638;2022-11-15T08:03:01;11.86;78.18
64034;SHT31;50280;49.864;8.638;2022-11-15T08:05:38;11.92;77.91
64034;SHT31;50280;49.864;8.638;2022-11-15T08:08:12;11.96;77.69
64034;SHT31;50280;49.864;8.638;2022-11-15T08:10:44;11.97;77.71
64034;SHT31;50280;49.864;8.638;2022-11-15T08:13:18;12.02;77.68
64034;SHT31;50280;49.864;8.638;2022-11-15T08:15:51;12.03;77.79
64034;SHT31;50280;49.864;8.638;2022-11-15T08:18:23;12.03;78.52
64034;SHT31;50280;49.864;8.638;2022-11-15T08:20:58;12.03;78.26
64034;SHT31;50280;49.864;8.638;2022-11-15T08:23:32;12.04;78.41
64034;SHT31;50280;49.864;8.638;2022-11-15T08:26:05;12.07;78.35
64034;SHT31;50280;49.864;8.638;2022-11-15T08:28:39;12.10;78.66
64034;SHT31;50280;49.864;8.638;2022-11-15T08:31:14;12.14;78.42
64034;SHT31;50280;49.864;8.638;2022-11-15T08:33:47;12.14;78.00
64034;SHT31;50280;49.864;8.638;2022-11-15T08:36:20;12.17;78.23
64034;SHT31;50280;49.864;8.638;2022-11-15T08:38:52;12.16;77.91
64034;SHT31;50280;49.864;8.638;2022-11-15T08:41:27;12.19;77.49
64034;SHT31;50280;49.864;8.638;2022-11-15T08:44:05;12.17;77.73
64034;SHT31;50280;49.864;8.638;2022-11-15T08:46:37;12.14;77.16
64034;SHT31;50280;49.864;8.638;2022-11-15T08:49:10;12.16;77.40
64034;SHT31;50280;49.864;8.638;2022-11-15T08:51:42;12.16;77.38
64034;SHT31;50280;49.864;8.638;2022-11-15T08:54:15;12.17;77.89
64034;SHT31;50280;49.864;8.638;2022-11-15T08:56:47;12.19;77.78
64034;SHT31;50280;49.864;8.638;2022-11-15T08:59:21;12.21;77.39
64034;SHT31;50280;49.864;8.638;2022-11-15T09:01:54;12.24;77.76
64034;SHT31;50280;49.864;8.638;2022-11-15T09:04:26;12.26;77.56
64034;SHT31;50280;49.864;8.638;2022-11-15T09:06:59;12.30;77.28
64034;SHT31;50280;49.864;8.638;2022-11-15T09:09:31;12.34;77.12
64034;SHT31;50280;49.864;8.638;2022-11-15T09:12:05;12.40;76.94
64034;SHT31;50280;49.864;8.638;2022-11-15T09:14:39;12.45;77.14
64034;SHT31;50280;49.864;8.638;2022-11-15T09:17:12;12.52;76.73
64034;SHT31;50280;49.864;8.638;2022-11-15T09:19:44;12.56;77.07
64034;SHT31;50280;49.864;8.638;2022-11-15T09:22:17;12.55;76.02
64034;SHT31;50280;49.864;8.638;2022-11-15T09:24:49;12.56;76.46
64034;SHT31;50280;49.864;8.638;2022-11-15T09:27:22;12.59;76.57
64034;SHT31;50280;49.864;8.638;2022-11-15T09:29:56;12.62;76.57
64034;SHT31;50280;49.864;8.638;2022-11-15T09:32:29;12.62;76.89
64034;SHT31;50280;49.864;8.638;2022-11-15T09:35:02;12.61;77.33
64034;SHT31;50280;49.864;8.638;2022-11-15T09:37:34;12.62;77.18
64034;SHT31;50280;49.864;8.638;2022-11-15T09:40:10;12.65;77.13
64034;SHT31;50280;49.864;8.638;2022-11-15T09:42:54;12.66;77.36
64034;SHT31;50280;49.864;8.638;2022-11-15T09:45:53;12.69;76.68
64034;SHT31;50280;49.864;8.638;2022-11-15T09:48:50;12.75;75.72
64034;SHT31;50280;49.864;8.638;2022-11-15T09:51:28;12.78;76.20
64034;SHT31;50280;49.864;8.638;2022-11-15T09:54:10;12.85;76.28
64034;SHT31;50280;49.864;8.638;2022-11-15T09:56:56;12.92;76.29
64034;SHT31;50280;49.864;8.638;2022-11-15T09:59:46;12.93;75.70
64034;SHT31;50280;49.864;8.638;2022-11-15T10:02:44;12.96;76.19
64034;SHT31;50280;49.864;8.638;2022-11-15T10:05:39;13.07;76.53
64034;SHT31;50280;49.864;8.638;2022-11-15T10:08:25;13.20;75.60
64034;SHT31;50280;49.864;8.638;2022-11-15T10:11:24;13.33;75.17
64034;SHT31;50280;49.864;8.638;2022-11-15T10:14:02;13.40;74.37
64034;SHT31;50280;49.864;8.638;2022-11-15T10:20:44;13.55;73.62
64034;SHT31;50280;49.864;8.638;2022-11-15T10:23:23;13.48;73.80
64034;SHT31;50280;49.864;8.638;2022-11-15T10:25:58;13.51;74.04
64034;SHT31;50280;49.864;8.638;2022-11-15T10:28:32;13.48;74.18
64034;SHT31;50280;49.864;8.638;2022-11-15T10:31:21;13.50;73.97
64034;SHT31;50280;49.864;8.638;2022-11-15T10:34:10;13.51;73.78
64034;SHT31;50280;49.864;8.638;2022-11-15T10:36:47;13.47;74.05
64034;SHT31;50280;49.864;8.638;2022-11-15T10:39:27;13.43;73.97
64034;SHT31;50280;49.864;8.638;2022-11-15T10:42:15;13.34;74.53
64034;SHT31;50280;49.864;8.638;2022-11-15T10:44:57;13.27;74.73
64034;SHT31;50280;49.864;8.638;2022-11-15T10:47:31;13.20;75.41
64034;SHT31;50280;49.864;8.638;2022-11-15T10:53:02;13.19;76.00
64034;SHT31;50280;49.864;8.638;2022-11-15T10:55:35;13.17;76.09
64034;SHT31;50280;49.864;8.638;2022-11-15T10:58:22;13.16;75.98
64034;SHT31;50280;49.864;8.638;2022-11-15T11:01:11;13.16;76.40
64034;SHT31;50280;49.864;8.638;2022-11-15T11:03:58;13.16;76.25
64034;SHT31;50280;49.864;8.638;2022-11-15T11:06:46;13.16;76.43
64034;SHT31;50280;49.864;8.638;2022-11-15T11:09:32;13.13;76.71
64034;SHT31;50280;49.864;8.638;2022-11-15T11:12:10;13.21;76.50
64034;SHT31;50280;49.864;8.638;2022-11-15T11:14:43;13.27;76.66
64034;SHT31;50280;49.864;8.638;2022-11-15T11:17:20;13.41;76.57
64034;SHT31;50280;49.864;8.638;2022-11-15T11:20:17;13.62;75.89
64034;SHT31;50280;49.864;8.638;2022-11-15T11:23:06;13.82;75.24
64034;SHT31;50280;49.864;8.638;2022-11-15T11:26:07;13.96;74.75
64034;SHT31;50280;49.864;8.638;2022-11-15T11:29:00;14.16;74.48
64034;SHT31;50280;49.864;8.638;2022-11-15T11:32:00;14.31;74.22
64034;SHT31;50280;49.864;8.638;2022-11-15T11:34:55;14.35;73.86
64034;SHT31;50280;49.864;8.638;2022-11-15T11:37:46;14.35;74.18
64034;SHT31;50280;49.864;8.638;2022-11-15T11:40:29;14.41;73.26
64034;SHT31;50280;49.864;8.638;2022-11-15T11:43:19;14.37;73.58
64034;SHT31;50280;49.864;8.638;2022-11-15T11:46:42;14.38;73.96
64034;SHT31;50280;49.864;8.638;2022-11-15T11:49:29;14.40;74.08
64034;SHT31;50280;49.864;8.638;2022-11-15T11:52:15;14.48;73.30
64034;SHT31;50280;49.864;8.638;2022-11-15T11:55:02;14.52;73.42
64034;SHT31;50280;49.864;8.638;2022-11-15T11:57:51;14.65;72.50
64034;SHT31;50280;49.864;8.638;2022-11-15T12:00:40;14.72;70.88
64034;SHT31;50280;49.864;8.638;2022-11-15T12:03:24;14.75;70.46
64034;SHT31;50280;49.864;8.638;2022-11-15T12:06:19;14.73;69.91
64034;SHT31;50280;49.864;8.638;2022-11-15T12:09:07;14.73;69.95
64034;SHT31;50280;49.864;8.638;2022-11-15T12:12:01;14.73;70.06
64034;SHT31;50280;49.864;8.638;2022-11-15T12:14:48;14.73;69.75
64034;SHT31;50280;49.864;8.638;2022-11-15T12:17:29;14.73;70.27
64034;SHT31;50280;49.864;8.638;2022-11-15T12:20:06;14.73;69.93
64034;SHT31;50280;49.864;8.638;2022-11-15T12:22:54;14.69;69.37
64034;SHT31;50280;49.864;8.638;2022-11-15T12:25:35;14.67;69.87
64034;SHT31;50280;49.864;8.638;2022-11-15T12:28:24;14.61;69.97
64034;SHT31;50280;49.864;8.638;2022-11-15T12:31:14;14.61;70.46
64034;SHT31;50280;49.864;8.638;2022-11-15T12:33:55;14.58;70.01
64034;SHT31;50280;49.864;8.638;2022-11-15T12:36:35;14.49;70.54
64034;SHT31;50280;49.864;8.638;2022-11-15T12:39:13;14.46;70.92
64034;SHT31;50280;49.864;8.638;2022-11-15T12:45:25;14.35;71.35
64034;SHT31;50280;49.864;8.638;2022-11-15T12:52:05;14.23;71.75
64034;SHT31;50280;49.864;8.638;2022-11-15T12:54:54;14.20;72.12
64034;SHT31;50280;49.864;8.638;2022-11-15T12:57:54;14.14;72.28
64034;SHT31;50280;49.864;8.638;2022-11-15T13:00:37;14.09;72.48
64034;SHT31;50280;49.864;8.638;2022-11-15T13:03:24;14.09;72.30
64034;SHT31;50280;49.864;8.638;2022-11-15T13:06:07;14.09;73.08
64034;SHT31;50280;49.864;8.638;2022-11-15T13:12:50;14.07;73.36
64034;SHT31;50280;49.864;8.638;2022-11-15T13:15:46;14.06;73.13
64034;SHT31;50280;49.864;8.638;2022-11-15T13:18:38;14.06;73.18
64034;SHT31;50280;49.864;8.638;2022-11-15T13:21:21;14.05;73.14
64034;SHT31;50280;49.864;8.638;2022-11-15T13:23:57;14.06;72.83
64034;SHT31;50280;49.864;8.638;2022-11-15T13:26:30;14.05;72.97
64034;SHT31;50280;49.864;8.638;2022-11-15T13:29:03;14.07;73.20
64034;SHT31;50280;49.864;8.638;2022-11-15T13:31:46;14.10;73.39
64034;SHT31;50280;49.864;8.638;2022-11-15T13:34:25;14.13;73.42
64034;SHT31;50280;49.864;8.638;2022-11-15T13:37:01;14.14;72.56
64034;SHT31;50280;49.864;8.638;2022-11-15T13:39:35;14.13;72.66
64034;SHT31;50280;49.864;8.638;2022-11-15T13:42:14;14.13;72.57
64034;SHT31;50280;49.864;8.638;2022-11-15T13:44:55;14.10;72.71
64034;SHT31;50280;49.864;8.638;2022-11-15T13:47:30;14.09;72.64
64034;SHT31;50280;49.864;8.638;2022-11-15T13:50:04;14.10;72.32
64034;SHT31;50280;49.864;8.638;2022-11-15T13:52:38;14.09;72.74
64034;SHT31;50280;49.864;8.638;2022-11-15T13:55:19;14.07;72.82
64034;SHT31;50280;49.864;8.638;2022-11-15T13:57:57;14.05;72.84
64034;SHT31;50280;49.864;8.638;2022-11-15T14:00:36;14.06;72.77
64034;SHT31;50280;49.864;8.638;2022-11-15T14:03:17;14.05;73.03
64034;SHT31;50280;49.864;8.638;2022-11-15T14:06:03;14.09;73.12
64034;SHT31;50280;49.864;8.638;2022-11-15T14:08:39;14.14;73.05
64034;SHT31;50280;49.864;8.638;2022-11-15T14:11:17;14.16;72.75
64034;SHT31;50280;49.864;8.638;2022-11-15T14:14:13;14.20;72.56
64034;SHT31;50280;49.864;8.638;2022-11-15T14:16:48;14.23;72.36
64034;SHT31;50280;49.864;8.638;2022-11-15T14:19:37;14.26;72.10
64034;SHT31;50280;49.864;8.638;2022-11-15T14:22:14;14.26;72.21
64034;SHT31;50280;49.864;8.638;2022-11-15T14:25:14;14.30;72.40
64034;SHT31;50280;49.864;8.638;2022-11-15T14:28:16;14.30;72.04
64034;SHT31;50280;49.864;8.638;2022-11-15T14:31:04;14.26;72.17
64034;SHT31;50280;49.864;8.638;2022-11-15T14:33:43;14.24;72.33
64034;SHT31;50280;49.864;8.638;2022-11-15T14:36:18;14.26;73.03
64034;SHT31;50280;49.864;8.638;2022-11-15T14:38:52;14.24;73.31
64034;SHT31;50280;49.864;8.638;2022-11-15T14:41:25;14.23;73.14
64034;SHT31;50280;49.864;8.638;2022-11-15T14:43:59;14.21;72.97
64034;SHT31;50280;49.864;8.638;2022-11-15T14:46:31;14.26;73.21
64034;SHT31;50280;49.864;8.638;2022-11-15T14:49:04;14.27;73.22
64034;SHT31;50280;49.864;8.638;2022-11-15T14:51:36;14.24;73.75
64034;SHT31;50280;49.864;8.638;2022-11-15T14:54:09;14.26;73.93
64034;SHT31;50280;49.864;8.638;2022-11-15T14:56:42;14.23;73.38
64034;SHT31;50280;49.864;8.638;2022-11-15T14:59:16;14.24;73.83
64034;SHT31;50280;49.864;8.638;2022-11-15T15:01:48;14.23;73.74
64034;SHT31;50280;49.864;8.638;2022-11-15T15:04:21;14.18;73.96
64034;SHT31;50280;49.864;8.638;2022-11-15T15:06:53;14.16;74.14
64034;SHT31;50280;49.864;8.638;2022-11-15T15:09:25;14.09;74.00
64034;SHT31;50280;49.864;8.638;2022-11-15T15:11:58;14.06;74.23
64034;SHT31;50280;49.864;8.638;2022-11-15T15:14:31;14.03;74.28
64034;SHT31;50280;49.864;8.638;2022-11-15T15:17:04;13.98;74.37
64034;SHT31;50280;49.864;8.638;2022-11-15T15:19:36;13.95;74.49
64034;SHT31;50280;49.864;8.638;2022-11-15T15:22:13;13.89;74.69
64034;SHT31;50280;49.864;8.638;2022-11-15T15:24:48;13.89;74.49
64034;SHT31;50280;49.864;8.638;2022-11-15T15:27:21;13.85;74.44
64034;SHT31;50280;49.864;8.638;2022-11-15T15:29:54;13.85;74.08
64034;SHT31;50280;49.864;8.638;2022-11-15T15:32:27;13.81;73.98
64034;SHT31;50280;49.864;8.638;2022-11-15T15:34:59;13.83;74.01
64034;SHT31;50280;49.864;8.638;2022-11-15T15:37:33;13.83;73.92
64034;SHT31;50280;49.864;8.638;2022-11-15T15:40:10;13.82;74.16
64034;SHT31;50280;49.864;8.638;2022-11-15T15:42:47;13.81;74.24
64034;SHT31;50280;49.864;8.638;2022-11-15T15:45:22;13.81;74.39
64034;SHT31;50280;49.864;8.638;2022-11-15T15:47:56;13.79;74.44
64034;SHT31;50280;49.864;8.638;2022-11-15T15:50:32;13.76;74.37
64034;SHT31;50280;49.864;8.638;2022-11-15T15:53:06;13.75;74.50
64034;SHT31;50280;49.864;8.638;2022-11-15T15:55:39;13.73;74.63
64034;SHT31;50280;49.864;8.638;2022-11-15T15:58:12;13.72;74.53
64034;SHT31;50280;49.864;8.638;2022-11-15T16:00:46;13.72;74.54
64034;SHT31;50280;49.864;8.638;2022-11-15T16:03:18;13.69;74.65
64034;SHT31;50280;49.864;8.638;2022-11-15T16:05:50;13.69;74.33
64034;SHT31;50280;49.864;8.638;2022-11-15T16:08:24;13.72;73.96
64034;SHT31;50280;49.864;8.638;2022-11-15T16:10:57;13.72;74.36
64034;SHT31;50280;49.864;8.638;2022-11-15T16:13:29;13.71;74.26
64034;SHT31;50280;49.864;8.638;2022-11-15T16:16:04;13.68;74.24
64034;SHT31;50280;49.864;8.638;2022-11-15T16:18:45;13.65;74.08
64034;SHT31;50280;49.864;8.638;2022-11-15T16:21:17;13.62;74.05
64034;SHT31;50280;49.864;8.638;2022-11-15T16:23:49;13.59;73.84
64034;SHT31;50280;49.864;8.638;2022-11-15T16:26:25;13.61;73.73
64034;SHT31;50280;49.864;8.638;2022-11-15T16:29:00;13.58;73.63
64034;SHT31;50280;49.864;8.638;2022-11-15T16:31:34;13.57;73.54
64034;SHT31;50280;49.864;8.638;2022-11-15T16:34:06;13.55;73.54
64034;SHT31;50280;49.864;8.638;2022-11-15T16:36:40;13.53;73.58
64034;SHT31;50280;49.864;8.638;2022-11-15T16:39:13;13.51;73.17
64034;SHT31;50280;49.864;8.638;2022-11-15T16:41:46;13.51;73.16
64034;SHT31;50280;49.864;8.638;2022-11-15T16:44:18;13.51;73.14
64034;SHT31;50280;49.864;8.638;2022-11-15T16:46:52;13.51;73.03
64034;SHT31;50280;49.864;8.638;2022-11-15T16:49:24;13.48;73.02
64034;SHT31;50280;49.864;8.638;2022-11-15T16:51:57;13.53;72.77
64034;SHT31;50280;49.864;8.638;2022-11-15T16:54:29;13.50;72.49